Terminal Aerodrome Forecast
Issued by NWS Northern Indiana

Home | Current Version | Previous Version | Graphics & Text | Print | Product List | Glossary On
Versions: 1 2 3 4 5 6 7 8 9 10 11 12 13 14 15 16 17
000
FTUS43 KIWX 300533
TAFFWA
TAF
KFWA 300533Z 3006/0106 06005KT P6SM BKN150
     FM301600 09011G20KT P6SM RA OVC040
     FM301800 10011G20KT 3SM -RA BR OVC025
     FM302000 09012G20KT 3SM -RA BR OVC010
     FM302300 09013G20KT 2SM -RA BR OVC003=

USA.gov is the U.S. government's official web portal to all federal, state and local government web resources and services.